createdAt,value
2019-02-15T02:26:02.390Z,99678.10
2019-02-15T02:29:01.181Z,99674.26
2019-02-15T04:31:58.489Z,99620.67
2019-02-15T05:09:09.917Z,99626.34
2019-02-15T05:13:27.458Z,99634.38
2019-02-15T05:17:13.560Z,99634.77
2019-02-15T05:52:35.522Z,99655.53
2019-02-15T06:03:05.702Z,99656.74
2019-02-15T06:18:47.227Z,99650.45
2019-02-15T06:25:36.794Z,99645.55
2019-02-15T06:28:41.827Z,99643.51
2019-02-15T06:35:12.291Z,99645.98
2019-02-15T06:41:26.456Z,99646.12
2019-02-15T06:48:49.957Z,99656.66
2019-02-15T06:52:21.415Z,99656.33
2019-02-15T07:06:44.365Z,99679.26
2019-02-15T07:09:19.397Z,99684.34
2019-02-15T07:16:04.591Z,99683.72
2019-02-15T07:22:11.504Z,99685.95
2019-02-15T07:25:49.307Z,99674.14
2019-02-15T07:32:47.616Z,99635.17
2019-02-15T07:35:23.162Z,99618.59
2019-02-15T07:41:51.037Z,99607.33
2019-02-15T07:47:59.239Z,99601.36
2019-02-15T07:50:32.888Z,99592.80
2019-02-15T07:53:06.696Z,99595.59
2019-02-15T07:55:44.189Z,99592.34
2019-02-15T07:58:19.030Z,99587.46
2019-02-15T08:00:56.717Z,99590.77
2019-02-15T08:10:19.619Z,99571.89
2019-02-15T08:20:03.920Z,99569.49
2019-02-15T08:22:36.551Z,99573.43
2019-02-15T08:25:29.084Z,99575.48
2019-02-15T08:28:08.381Z,99568.78
2019-02-15T08:30:41.304Z,99562.67
2019-02-15T08:33:14.866Z,99562.39
2019-02-15T08:35:47.258Z,99561.23
2019-02-15T08:38:29.709Z,99563.30
2019-02-15T08:41:04.134Z,99561.63
2019-02-15T08:43:37.543Z,99561.37
2019-02-15T08:46:09.895Z,99560.73
2019-02-15T08:48:46.255Z,99555.38
2019-02-15T08:51:16.484Z,99556.84
2019-02-15T08:53:50.805Z,99555.00
2019-02-15T08:56:23.164Z,99559.09
2019-02-15T08:58:55.394Z,99564.04
2019-02-15T09:01:28.074Z,99558.27
2019-02-15T09:04:00.623Z,99560.52
2019-02-15T09:06:33.717Z,99552.11
2019-02-15T09:09:06.891Z,99559.26
2019-02-15T09:11:41.096Z,99552.73
2019-02-15T09:14:14.341Z,99552.44
2019-02-15T09:21:05.804Z,99553.73
2019-02-15T09:23:39.269Z,99547.94
2019-02-15T09:29:08.830Z,99542.13
2019-02-15T09:31:45.812Z,99540.28
2019-02-15T09:34:53.209Z,99539.19
2019-02-15T09:38:37.143Z,99541.37
2019-02-15T09:41:10.848Z,99535.20
2019-02-15T09:51:16.756Z,99539.62
2019-02-15T10:03:32.734Z,99539.44
2019-02-15T10:25:27.568Z,99528.75
2019-02-15T10:28:12.419Z,99523.66
2019-02-15T10:34:47.295Z,99523.63
2019-02-15T10:43:48.355Z,99516.70
2019-02-15T10:46:23.322Z,99511.13
2019-02-15T10:48:58.740Z,99511.47
2019-02-15T10:57:49.713Z,99496.57
2019-02-15T11:00:28.748Z,99497.05
2019-02-15T11:03:33.577Z,99491.97
2019-02-15T11:06:15.552Z,99479.52
2019-02-15T11:09:26.453Z,99474.34
2019-02-15T11:12:27.599Z,99472.03
2019-02-15T11:14:42.232Z,99464.39
2019-02-15T11:21:02.143Z,99454.29
2019-02-15T11:24:33.423Z,99451.17
2019-02-15T11:39:52.579Z,99422.34
2019-02-15T11:43:31.236Z,99422.38
2019-02-15T11:48:02.056Z,99414.65
2019-02-15T12:00:28.664Z,99392.46
2019-02-15T12:12:21.040Z,99387.27
2019-02-15T12:16:08.963Z,99383.99
2019-02-15T13:00:03.199Z,99306.26
2019-02-15T16:12:49.848Z,99205.64
2019-02-15T18:46:22.704Z,99237.48
2019-02-15T18:49:06.498Z,99238.17
2019-02-15T18:51:57.336Z,99241.61
2019-02-15T18:54:29.351Z,99243.41
2019-02-15T18:57:01.225Z,99246.21
2019-02-15T18:59:33.330Z,99244.11
2019-02-15T19:02:05.239Z,99240.29
2019-02-15T19:04:37.145Z,99236.22
2019-02-15T19:07:09.045Z,99239.66
2019-02-15T19:09:40.949Z,99234.55
2019-02-15T19:12:12.841Z,99231.29
2019-02-15T19:14:44.746Z,99230.17
2019-02-15T19:17:16.652Z,99231.23
2019-02-15T19:19:48.560Z,99228.17
2019-02-15T19:22:20.472Z,99227.04
2019-02-15T19:24:52.377Z,99229.20
2019-02-15T19:27:24.288Z,99228.79
2019-02-15T19:29:57.231Z,99230.49
2019-02-15T19:32:34.419Z,99227.83
2019-02-15T19:35:06.743Z,99226.20
2019-02-15T19:37:38.637Z,99222.86
2019-02-15T19:40:12.237Z,99221.22
2019-02-15T19:42:46.495Z,99218.51
2019-02-15T19:45:18.404Z,99221.14
2019-02-15T19:47:50.300Z,99218.47
2019-02-15T19:50:22.209Z,99218.73
2019-02-15T19:52:56.363Z,99221.91
2019-02-15T19:55:28.312Z,99218.27
2019-02-15T19:58:00.227Z,99221.59
2019-02-15T20:00:32.139Z,99214.55
2019-02-15T20:03:04.040Z,99222.35
2019-02-15T20:05:35.950Z,99219.51
2019-02-15T20:08:07.956Z,99217.33
2019-02-15T20:10:39.950Z,99215.83
2019-02-15T20:13:13.006Z,99213.73
2019-02-15T20:15:44.913Z,99210.28
2019-02-15T20:18:17.993Z,99214.38
2019-02-15T20:20:49.893Z,99214.03
2019-02-15T20:23:21.811Z,99215.85
2019-02-15T20:25:53.700Z,99212.97
2019-02-15T20:28:25.611Z,99213.63
2019-02-15T20:30:58.447Z,99218.55
2019-02-15T20:33:30.354Z,99218.48
2019-02-15T20:36:02.269Z,99215.83
2019-02-15T20:38:34.175Z,99210.34
2019-02-15T20:41:06.079Z,99211.34
2019-02-15T20:43:37.979Z,99213.14
2019-02-15T20:46:09.895Z,99216.92
2019-02-15T20:48:41.806Z,99209.41
2019-02-15T20:51:13.777Z,99213.88
2019-02-15T20:53:48.273Z,99206.87
2019-02-15T20:56:28.281Z,99202.31
2019-02-15T20:59:00.191Z,99204.29
2019-02-15T21:01:33.614Z,99201.63
2019-02-15T21:04:06.294Z,99199.03
2019-02-15T21:06:38.194Z,99199.03
2019-02-15T21:09:10.107Z,99198.76
2019-02-15T21:11:42.022Z,99196.80
2019-02-15T21:14:13.944Z,99197.23
2019-02-15T21:16:46.150Z,99196.80
2019-02-15T21:19:20.015Z,99191.77
2019-02-15T21:21:51.937Z,99191.13
2019-02-15T21:24:23.843Z,99185.20
2019-02-15T21:27:06.085Z,99185.25
2019-02-15T21:29:38.290Z,99191.89
2019-02-15T21:32:10.213Z,99185.34
2019-02-15T21:34:42.123Z,99181.92
2019-02-15T21:37:18.209Z,99182.93
2019-02-15T21:39:50.112Z,99182.69
2019-02-15T21:42:22.024Z,99180.49
2019-02-15T21:44:56.392Z,99180.89
2019-02-15T21:47:28.309Z,99182.45
2019-02-15T21:50:00.323Z,99175.31
2019-02-15T21:52:32.198Z,99174.59
2019-02-15T21:55:05.577Z,99175.46
2019-02-15T21:57:37.551Z,99165.18
2019-02-15T22:00:13.271Z,99168.67
2019-02-15T22:02:45.184Z,99169.05
2019-02-15T22:05:18.994Z,99168.16
2019-02-15T22:07:53.421Z,99161.99
2019-02-15T22:10:25.341Z,99160.25
2019-02-15T22:12:57.266Z,99159.30
2019-02-15T22:15:29.175Z,99157.70
2019-02-15T22:18:04.350Z,99159.33
2019-02-15T22:20:37.180Z,99162.14
2019-02-15T22:23:09.101Z,99165.31
2019-02-15T22:25:41.013Z,99169.42
2019-02-15T22:28:12.920Z,99170.41
2019-02-15T22:30:44.826Z,99176.06
2019-02-15T22:33:16.735Z,99177.17
2019-02-15T22:35:48.636Z,99174.69
2019-02-15T22:38:21.860Z,99176.67
2019-02-15T22:41:14.068Z,99177.34
2019-02-15T22:43:49.034Z,99176.33
2019-02-15T22:46:20.945Z,99174.84
2019-02-15T22:48:52.871Z,99170.17
2019-02-15T22:51:25.936Z,99170.40
2019-02-15T22:54:01.698Z,99175.84
2019-02-15T22:56:34.450Z,99172.13
2019-02-15T22:59:06.362Z,99173.55
2019-02-15T23:01:41.496Z,99177.00
2019-02-15T23:04:13.776Z,99175.02
2019-02-15T23:06:45.692Z,99173.64
2019-02-15T23:09:25.561Z,99176.19
2019-02-15T23:11:57.656Z,99175.21
2019-02-15T23:14:29.890Z,99169.77
2019-02-15T23:17:01.799Z,99170.17
2019-02-15T23:19:33.716Z,99168.13
2019-02-15T23:22:05.645Z,99162.03
2019-02-15T23:24:37.560Z,99159.09
2019-02-15T23:27:09.463Z,99156.11
2019-02-15T23:29:41.374Z,99159.41
2019-02-15T23:32:13.275Z,99156.20
2019-02-15T23:34:45.182Z,99161.34
2019-02-15T23:37:17.092Z,99155.84
2019-02-15T23:39:49.010Z,99154.34
2019-02-15T23:42:21.279Z,99155.92
2019-02-15T23:44:53.193Z,99152.05
2019-02-15T23:47:25.107Z,99148.81
2019-02-15T23:49:57.032Z,99142.37
2019-02-15T23:52:28.945Z,99136.97
2019-02-15T23:55:00.881Z,99143.42
2019-02-15T23:57:32.782Z,99142.30
